createdAt,value
2017-06-10T00:01:22.615Z,24.80
2017-06-10T00:03:50.678Z,24.67
2017-06-10T00:06:18.742Z,24.73
2017-06-10T00:08:46.819Z,25.27
2017-06-10T00:11:14.890Z,23.27
2017-06-10T00:13:42.959Z,24.10
2017-06-10T00:16:11.035Z,24.37
2017-06-10T00:18:39.107Z,23.90
2017-06-10T00:21:07.178Z,24.17
2017-06-10T00:23:35.350Z,23.57
2017-06-10T00:26:03.415Z,23.93
2017-06-10T00:28:31.490Z,24.40
2017-06-10T00:30:59.554Z,24.07
2017-06-10T00:33:27.627Z,23.33
2017-06-10T00:35:55.699Z,23.97
2017-06-10T00:38:23.770Z,23.97
2017-06-10T00:40:51.842Z,23.90
2017-06-10T00:43:19.915Z,24.60
2017-06-10T00:45:48.002Z,26.70
2017-06-10T00:48:16.066Z,24.37
2017-06-10T00:50:44.150Z,25.33
2017-06-10T00:53:12.226Z,24.10
2017-06-10T00:55:40.299Z,23.97
2017-06-10T00:58:08.367Z,24.97
2017-06-10T01:00:36.439Z,23.60
2017-06-10T01:03:04.511Z,24.50
2017-06-10T01:05:32.583Z,23.80
2017-06-10T01:08:00.659Z,24.30
2017-06-10T01:10:28.725Z,23.43
2017-06-10T01:12:56.794Z,24.30
2017-06-10T01:15:24.858Z,23.40
2017-06-10T01:17:52.947Z,23.83
2017-06-10T01:20:21.020Z,24.70
2017-06-10T01:22:49.091Z,24.40
2017-06-10T01:25:17.166Z,25.10
2017-06-10T01:27:45.234Z,26.10
2017-06-10T01:30:13.314Z,25.77
2017-06-10T01:32:41.379Z,25.73
2017-06-10T01:35:09.454Z,24.57
2017-06-10T01:37:37.522Z,24.67
2017-06-10T01:40:05.598Z,25.50
2017-06-10T01:42:33.671Z,25.67
2017-06-10T01:45:01.746Z,25.40
2017-06-10T01:47:29.814Z,25.53
2017-06-10T01:49:57.905Z,27.00
2017-06-10T01:52:26.738Z,26.10
2017-06-10T01:54:54.810Z,25.83
2017-06-10T01:57:22.882Z,26.23
2017-06-10T01:59:50.966Z,26.10
2017-06-10T02:02:19.050Z,27.60
2017-06-10T02:04:47.123Z,25.80
2017-06-10T02:07:15.315Z,25.50
2017-06-10T02:09:43.387Z,27.10
2017-06-10T02:12:11.874Z,26.23
2017-06-10T02:14:39.938Z,28.10
2017-06-10T02:17:08.016Z,25.67
2017-06-10T02:19:36.091Z,26.60
2017-06-10T02:22:04.158Z,26.10
2017-06-10T02:24:32.234Z,25.70
2017-06-10T02:27:00.307Z,25.30
2017-06-10T02:29:28.378Z,25.77
2017-06-10T02:31:56.451Z,25.43
2017-06-10T02:34:24.539Z,26.60
2017-06-10T02:36:53.371Z,25.97
2017-06-10T02:39:21.443Z,27.23
2017-06-10T02:41:49.774Z,26.83
2017-06-10T02:44:17.934Z,29.80
2017-06-10T02:46:46.010Z,26.37
2017-06-10T02:49:14.078Z,26.90
2017-06-10T02:51:42.170Z,27.30
2017-06-10T02:54:10.226Z,26.37
2017-06-10T02:56:38.314Z,27.40
2017-06-10T02:59:07.150Z,27.60
2017-06-10T03:01:35.222Z,27.27
2017-06-10T03:04:03.462Z,27.70
2017-06-10T03:06:32.299Z,29.63
2017-06-10T03:09:00.382Z,29.07
2017-06-10T03:11:28.451Z,28.10
2017-06-10T03:13:56.522Z,27.63
2017-06-10T03:16:24.614Z,28.63
2017-06-10T03:18:52.790Z,28.63
2017-06-10T03:21:20.867Z,28.57
2017-06-10T03:23:48.939Z,28.13
2017-06-10T03:26:17.023Z,30.40
2017-06-10T03:28:45.186Z,30.23
2017-06-10T03:31:13.282Z,29.37
2017-06-10T03:33:41.331Z,32.90
2017-06-10T03:36:09.407Z,28.70
2017-06-10T03:38:37.470Z,29.07
2017-06-10T03:41:05.559Z,29.03
2017-06-10T03:43:34.399Z,37.10
2017-06-10T03:46:02.475Z,30.33
2017-06-10T03:48:30.546Z,34.80
2017-06-10T03:50:58.617Z,30.87
2017-06-10T03:53:26.690Z,34.37
2017-06-10T03:55:54.763Z,34.10
2017-06-10T03:58:22.838Z,36.33
2017-06-10T04:00:50.910Z,30.60
2017-06-10T04:03:18.976Z,31.93
2017-06-10T04:05:47.056Z,32.33
2017-06-10T04:08:15.127Z,32.73
2017-06-10T04:10:43.199Z,33.17
2017-06-10T04:13:11.267Z,29.37
2017-06-10T04:15:39.354Z,42.10
2017-06-10T04:18:07.426Z,29.17
2017-06-10T04:20:35.489Z,30.50
2017-06-10T04:23:03.562Z,30.03
2017-06-10T04:25:31.666Z,30.47
2017-06-10T04:27:59.758Z,29.43
2017-06-10T04:30:28.635Z,29.33
2017-06-10T04:32:56.706Z,29.93
2017-06-10T04:35:24.878Z,29.60
2017-06-10T04:37:52.961Z,29.77
2017-06-10T04:40:21.026Z,29.83
2017-06-10T04:42:49.096Z,30.27
2017-06-10T04:45:17.175Z,29.90
2017-06-10T04:47:45.241Z,29.60
2017-06-10T04:50:13.314Z,30.00
2017-06-10T04:52:41.383Z,31.53
2017-06-10T04:55:09.459Z,31.47
2017-06-10T04:57:37.531Z,32.57
2017-06-10T05:00:05.620Z,30.67
2017-06-10T05:02:34.455Z,31.07
2017-06-10T05:05:03.163Z,34.77
2017-06-10T05:07:31.238Z,30.63
2017-06-10T05:09:59.307Z,32.33
2017-06-10T05:12:27.383Z,31.63
2017-06-10T05:14:55.455Z,33.33
2017-06-10T05:17:23.532Z,31.37
2017-06-10T05:19:51.599Z,35.90
2017-06-10T05:22:19.687Z,30.63
2017-06-10T05:24:47.758Z,38.60
2017-06-10T05:27:15.830Z,33.33
2017-06-10T05:29:43.911Z,30.73
2017-06-10T05:32:11.981Z,36.77
2017-06-10T05:34:40.050Z,37.30
2017-06-10T05:37:08.118Z,32.77
2017-06-10T05:39:36.195Z,37.03
2017-06-10T05:42:04.267Z,37.07
2017-06-10T05:44:32.354Z,31.33
2017-06-10T05:47:01.190Z,29.10
2017-06-10T05:49:29.262Z,31.10
2017-06-10T05:51:57.335Z,31.27
2017-06-10T05:54:25.410Z,31.33
2017-06-10T05:56:53.483Z,29.93
2017-06-10T05:59:21.549Z,29.60
2017-06-10T06:01:49.650Z,30.63
2017-06-10T06:04:17.718Z,29.40
2017-06-10T06:06:45.794Z,33.43
2017-06-10T06:09:13.982Z,29.20
2017-06-10T06:11:42.055Z,29.47
2017-06-10T06:14:10.130Z,29.67
2017-06-10T06:16:38.198Z,30.27
2017-06-10T06:19:06.282Z,29.40
2017-06-10T06:21:34.346Z,29.63
2017-06-10T06:24:02.430Z,28.80
2017-06-10T06:26:31.290Z,30.50
2017-06-10T06:28:59.362Z,31.73
2017-06-10T06:31:27.438Z,30.77
2017-06-10T06:33:55.502Z,32.13
2017-06-10T06:36:23.583Z,28.73
2017-06-10T06:38:51.646Z,29.63
2017-06-10T06:41:19.742Z,30.67
2017-06-10T06:43:47.815Z,30.30
2017-06-10T06:46:15.886Z,30.67
2017-06-10T06:48:43.962Z,30.60
2017-06-10T06:51:12.030Z,29.60
2017-06-10T06:53:40.114Z,30.00
2017-06-10T06:56:08.175Z,30.03
2017-06-10T06:58:36.254Z,30.63
2017-06-10T07:01:04.442Z,32.53
2017-06-10T07:03:32.531Z,29.40
2017-06-10T07:06:01.370Z,38.33
2017-06-10T07:08:29.445Z,29.93
2017-06-10T07:10:57.518Z,28.90
2017-06-10T07:13:25.586Z,28.50
2017-06-10T07:15:53.666Z,29.07
2017-06-10T07:18:21.730Z,30.17
2017-06-10T07:20:49.823Z,28.70
2017-06-10T07:23:17.890Z,30.73
2017-06-10T07:25:45.969Z,30.03
2017-06-10T07:28:14.042Z,29.30
2017-06-10T07:30:42.114Z,29.43
2017-06-10T07:33:10.192Z,29.30
2017-06-10T07:35:38.256Z,30.20
2017-06-10T07:38:06.357Z,29.33
2017-06-10T07:40:35.191Z,29.07
2017-06-10T07:43:03.259Z,29.57
2017-06-10T07:45:31.346Z,30.73
2017-06-10T07:47:59.418Z,29.00
2017-06-10T07:50:27.495Z,28.70
2017-06-10T07:52:55.719Z,29.20
2017-06-10T07:55:23.818Z,29.83
2017-06-10T07:57:51.898Z,28.73
2017-06-10T08:00:19.970Z,29.20
2017-06-10T08:02:48.046Z,29.63
2017-06-10T08:05:16.122Z,29.77
2017-06-10T08:07:44.206Z,31.40
2017-06-10T08:10:12.278Z,30.20
2017-06-10T08:12:40.350Z,29.03
2017-06-10T08:15:08.422Z,29.47
2017-06-10T08:17:36.510Z,29.70
2017-06-10T08:20:04.578Z,29.50
2017-06-10T08:22:32.654Z,28.73
2017-06-10T08:25:00.730Z,28.20
2017-06-10T08:27:28.799Z,28.83
2017-06-10T08:29:56.890Z,29.00
2017-06-10T08:32:24.946Z,29.10
2017-06-10T08:34:53.066Z,28.83
2017-06-10T08:37:21.130Z,30.40
2017-06-10T08:39:49.223Z,29.20
2017-06-10T08:42:17.298Z,26.67
2017-06-10T08:44:45.450Z,26.90
2017-06-10T08:47:13.536Z,26.70
2017-06-10T08:49:41.594Z,30.40
2017-06-10T08:52:09.730Z,28.80
2017-06-10T08:54:37.801Z,24.60
2017-06-10T08:57:05.872Z,27.07
2017-06-10T08:59:34.313Z,25.30
2017-06-10T09:02:02.385Z,25.17
2017-06-10T09:04:30.458Z,25.73
2017-06-10T09:06:58.531Z,25.70
2017-06-10T09:09:26.606Z,25.70
2017-06-10T09:11:54.674Z,26.13
2017-06-10T09:14:22.786Z,26.63
2017-06-10T09:16:51.563Z,25.67
2017-06-10T09:19:19.648Z,27.50
2017-06-10T09:21:47.719Z,28.33
2017-06-10T09:24:15.859Z,25.93
2017-06-10T09:26:43.966Z,27.53
2017-06-10T09:29:12.030Z,26.30
2017-06-10T09:31:40.112Z,25.90
2017-06-10T09:34:08.175Z,25.60
2017-06-10T09:36:36.320Z,26.30
2017-06-10T09:39:04.387Z,24.67
2017-06-10T09:41:32.503Z,24.87
2017-06-10T09:44:00.574Z,25.83
2017-06-10T09:46:28.662Z,26.63
2017-06-10T09:48:56.810Z,27.33
2017-06-10T09:51:24.894Z,27.40
2017-06-10T09:53:52.970Z,26.17
2017-06-10T09:56:21.038Z,26.30
2017-06-10T09:58:49.214Z,24.23
2017-06-10T10:01:17.391Z,24.07
2017-06-10T10:03:45.462Z,24.20
2017-06-10T10:06:13.534Z,26.03
2017-06-10T10:08:41.606Z,25.50
2017-06-10T10:11:09.690Z,23.40
2017-06-10T10:13:37.754Z,24.37
2017-06-10T10:16:05.838Z,24.50
2017-06-10T10:18:33.920Z,25.10
2017-06-10T10:21:02.747Z,23.50
2017-06-10T10:23:30.812Z,23.93
2017-06-10T10:25:58.888Z,25.00
2017-06-10T10:28:26.937Z,24.53
2017-06-10T10:30:55.075Z,26.20
2017-06-10T10:33:23.134Z,24.70
2017-06-10T10:35:51.207Z,25.53
2017-06-10T10:38:19.275Z,25.20
2017-06-10T10:40:47.350Z,25.50
2017-06-10T10:43:15.418Z,26.43
2017-06-10T10:45:43.511Z,26.20
2017-06-10T10:48:11.582Z,27.10
2017-06-10T10:50:39.658Z,25.60
2017-06-10T10:53:07.743Z,26.60
2017-06-10T10:55:35.904Z,26.90
2017-06-10T10:58:03.987Z,26.70
2017-06-10T11:00:32.152Z,28.87
2017-06-10T11:03:00.231Z,28.20
2017-06-10T11:05:28.295Z,28.57
2017-06-10T11:07:56.371Z,27.17
2017-06-10T11:10:24.451Z,26.40
2017-06-10T11:12:52.535Z,29.23
2017-06-10T11:15:20.790Z,29.03
2017-06-10T11:17:48.858Z,26.40
2017-06-10T11:20:16.965Z,28.03
2017-06-10T11:22:45.799Z,28.60
2017-06-10T11:25:13.874Z,27.43
2017-06-10T11:27:41.943Z,27.40
2017-06-10T11:30:10.035Z,26.50
2017-06-10T11:32:38.103Z,27.80
2017-06-10T11:35:06.174Z,27.67
2017-06-10T11:37:34.242Z,25.87
2017-06-10T11:40:02.330Z,27.33
2017-06-10T11:42:30.403Z,26.83
2017-06-10T11:44:58.613Z,27.13
2017-06-10T11:47:26.699Z,26.90
2017-06-10T11:49:54.763Z,27.60
2017-06-10T11:52:22.834Z,27.00
2017-06-10T11:54:50.978Z,28.27
2017-06-10T11:57:19.055Z,27.73
2017-06-10T11:59:47.127Z,26.30
2017-06-10T12:02:15.198Z,28.33
2017-06-10T12:04:43.264Z,28.07
2017-06-10T12:07:11.389Z,27.03
2017-06-10T12:09:39.462Z,28.00
2017-06-10T12:12:07.682Z,29.93
2017-06-10T12:14:35.758Z,29.97
2017-06-10T12:17:03.872Z,29.50
2017-06-10T12:19:32.884Z,31.33
2017-06-10T12:22:00.950Z,29.30
2017-06-10T12:24:29.028Z,29.37
2017-06-10T12:26:57.122Z,28.67
2017-06-10T12:29:25.459Z,29.13
2017-06-10T12:31:53.534Z,30.93
2017-06-10T12:34:21.606Z,30.80
2017-06-10T12:36:49.703Z,29.60
2017-06-10T12:39:17.817Z,28.80
2017-06-10T12:41:46.663Z,31.53
2017-06-10T12:44:14.731Z,30.37
2017-06-10T12:46:42.825Z,30.80
2017-06-10T12:49:10.911Z,28.73
2017-06-10T12:51:38.991Z,24.30
2017-06-10T12:55:11.075Z,133.23
2017-06-10T12:57:39.155Z,101.47
2017-06-10T13:00:07.996Z,69.00
2017-06-10T13:02:36.778Z,121.83
2017-06-10T13:05:04.866Z,114.30
2017-06-10T13:07:32.955Z,136.23
2017-06-10T13:10:01.040Z,119.17
2017-06-10T13:12:29.111Z,86.60
2017-06-10T13:14:57.204Z,115.63
2017-06-10T13:17:26.055Z,79.93
2017-06-10T13:19:54.157Z,70.73
2017-06-10T13:22:23.063Z,79.37
2017-06-10T13:24:51.936Z,95.33
2017-06-10T13:27:20.778Z,50.13
2017-06-10T13:29:48.855Z,64.53
2017-06-10T13:32:16.936Z,92.07
2017-06-10T13:34:45.015Z,54.00
2017-06-10T13:37:13.099Z,52.03
2017-06-10T13:39:41.172Z,35.03
2017-06-10T13:42:09.251Z,22.53
2017-06-10T13:44:37.323Z,28.90
2017-06-10T13:47:05.419Z,35.57
2017-06-10T13:49:34.262Z,37.47
2017-06-10T13:52:02.350Z,37.70
2017-06-10T13:54:30.419Z,23.50
2017-06-10T13:56:58.491Z,28.93
2017-06-10T13:59:26.607Z,29.97
2017-06-10T14:01:55.455Z,20.67
2017-06-10T14:04:23.551Z,15.00
2017-06-10T14:06:51.625Z,20.13
2017-06-10T14:09:19.791Z,14.87
2017-06-10T14:11:47.858Z,8.70
2017-06-10T14:14:15.931Z,9.30
2017-06-10T14:16:44.103Z,16.80
2017-06-10T14:19:12.255Z,18.47
2017-06-10T14:21:40.327Z,19.07
2017-06-10T14:24:08.398Z,21.60
2017-06-10T14:26:36.482Z,18.47
2017-06-10T14:29:04.569Z,20.40
2017-06-10T14:31:32.646Z,19.43
2017-06-10T14:34:00.719Z,21.43
2017-06-10T14:36:28.792Z,25.17
2017-06-10T14:38:56.870Z,24.17
2017-06-10T14:41:24.938Z,21.90
2017-06-10T14:43:53.017Z,19.80
2017-06-10T14:46:21.088Z,21.80
2017-06-10T14:48:49.170Z,18.77
2017-06-10T14:51:18.007Z,21.40
2017-06-10T14:53:46.482Z,20.47
2017-06-10T14:56:14.564Z,23.67
2017-06-10T14:58:42.635Z,20.80
2017-06-10T15:01:10.727Z,22.10
2017-06-10T15:03:38.798Z,25.60
2017-06-10T15:06:06.888Z,22.77
2017-06-10T15:08:34.970Z,24.20
2017-06-10T15:11:03.089Z,27.00
2017-06-10T15:13:31.162Z,23.57
2017-06-10T15:15:59.239Z,25.67
2017-06-10T15:18:27.315Z,23.77
2017-06-10T15:20:55.395Z,24.57
2017-06-10T15:23:23.479Z,24.00
2017-06-10T15:25:51.551Z,23.50
2017-06-10T15:28:19.643Z,26.43
2017-06-10T15:30:47.723Z,18.97
2017-06-10T15:33:15.798Z,16.40
2017-06-10T15:35:44.647Z,15.83
2017-06-10T15:38:12.723Z,14.93
2017-06-10T15:40:40.803Z,25.37
2017-06-10T15:43:08.879Z,30.30
2017-06-10T15:45:36.963Z,29.50
2017-06-10T15:48:05.046Z,26.60
2017-06-10T15:50:33.122Z,31.70
2017-06-10T15:53:01.959Z,28.23
2017-06-10T15:55:30.043Z,33.53
2017-06-10T15:57:58.111Z,63.10
2017-06-10T16:00:26.202Z,159.10
2017-06-10T16:02:54.291Z,165.97
2017-06-10T16:05:22.363Z,155.10
2017-06-10T16:07:50.456Z,131.63
2017-06-10T16:10:19.308Z,186.57
2017-06-10T16:12:47.397Z,122.97
2017-06-10T16:15:15.540Z,171.50
2017-06-10T16:17:43.625Z,134.23
2017-06-10T16:20:11.712Z,140.20
2017-06-10T16:22:39.799Z,136.23
2017-06-10T16:25:07.984Z,135.43
2017-06-10T16:27:36.845Z,135.37
2017-06-10T16:30:04.959Z,149.37
2017-06-10T16:32:33.812Z,149.30
2017-06-10T16:35:01.903Z,130.73
2017-06-10T16:37:29.987Z,143.60
2017-06-10T16:39:58.923Z,153.57
2017-06-10T16:42:27.019Z,127.83
2017-06-10T16:44:55.124Z,162.87
2017-06-10T16:47:24.001Z,153.03
2017-06-10T16:49:52.091Z,128.20
2017-06-10T16:52:20.187Z,157.73
2017-06-10T16:54:48.286Z,145.17
2017-06-10T16:57:16.376Z,142.97
2017-06-10T16:59:44.631Z,174.23
2017-06-10T17:02:12.856Z,143.50
2017-06-10T17:04:41.722Z,142.27
2017-06-10T17:07:09.819Z,145.20
2017-06-10T17:09:38.679Z,143.77
2017-06-10T17:12:06.751Z,174.07
2017-06-10T17:14:34.846Z,125.47
2017-06-10T17:17:02.927Z,160.70
2017-06-10T17:19:31.048Z,130.23
2017-06-10T17:21:59.136Z,153.87
2017-06-10T17:24:27.243Z,169.50
2017-06-10T17:26:55.327Z,153.13
2017-06-10T17:29:24.321Z,158.73
2017-06-10T17:31:52.407Z,166.73
2017-06-10T17:34:20.512Z,140.53
2017-06-10T17:36:48.619Z,131.10
2017-06-10T17:39:16.708Z,167.33
2017-06-10T17:41:44.795Z,146.83
2017-06-10T17:44:12.911Z,141.13
2017-06-10T17:46:40.997Z,155.20
2017-06-10T17:49:09.091Z,137.80
2017-06-10T17:51:37.348Z,140.37
2017-06-10T17:54:05.479Z,153.00
2017-06-10T17:56:33.579Z,146.67
2017-06-10T17:59:01.670Z,120.87
2017-06-10T18:01:29.781Z,139.20
2017-06-10T18:03:58.643Z,128.27
2017-06-10T18:06:26.726Z,147.90
2017-06-10T18:08:54.820Z,113.73
2017-06-10T18:11:22.900Z,117.30
2017-06-10T18:13:50.995Z,111.47
2017-06-10T18:16:19.075Z,104.90
2017-06-10T18:18:47.162Z,120.40
2017-06-10T18:21:15.246Z,116.13
2017-06-10T18:23:49.307Z,124.67
2017-06-10T18:26:17.586Z,114.63
2017-06-10T18:28:45.808Z,98.40
2017-06-10T18:31:13.904Z,81.83
2017-06-10T18:33:42.755Z,113.10
2017-06-10T18:36:10.868Z,103.03
2017-06-10T18:38:39.943Z,91.03
2017-06-10T18:41:08.039Z,126.50
2017-06-10T18:43:36.883Z,106.83
2017-06-10T18:46:04.996Z,107.10
2017-06-10T18:48:33.075Z,86.10
2017-06-10T18:51:01.160Z,89.13
2017-06-10T18:53:30.003Z,95.97
2017-06-10T18:55:58.091Z,95.40
2017-06-10T18:58:26.180Z,94.03
2017-06-10T19:00:54.264Z,135.23
2017-06-10T19:03:23.127Z,107.93
2017-06-10T19:05:51.203Z,95.67
2017-06-10T19:08:19.291Z,99.63
2017-06-10T19:10:48.126Z,67.07
2017-06-10T19:13:16.227Z,58.77
2017-06-10T19:15:44.337Z,55.90
2017-06-10T19:18:12.412Z,54.23
2017-06-10T19:20:40.510Z,45.63
2017-06-10T19:23:08.599Z,46.40
2017-06-10T19:25:36.688Z,49.07
2017-06-10T19:28:04.763Z,57.07
2017-06-10T19:30:32.847Z,55.70
2017-06-10T19:33:00.928Z,54.20
2017-06-10T19:35:29.004Z,46.10
2017-06-10T19:37:57.079Z,56.80
2017-06-10T19:40:25.943Z,67.73
2017-06-10T19:42:54.024Z,196.10
2017-06-10T19:45:22.118Z,198.53
2017-06-10T19:47:50.207Z,201.60
2017-06-10T19:50:18.299Z,197.97
2017-06-10T19:52:46.384Z,198.33
2017-06-10T19:55:14.480Z,216.73
2017-06-10T19:57:42.562Z,223.53
2017-06-10T20:00:10.649Z,225.23
2017-06-10T20:02:38.739Z,229.47
2017-06-10T20:05:07.588Z,246.57
2017-06-10T20:07:35.719Z,250.13
2017-06-10T20:10:03.792Z,229.67
2017-06-10T20:12:31.889Z,214.57
2017-06-10T20:14:59.985Z,227.33
2017-06-10T20:17:28.075Z,207.23
2017-06-10T20:19:56.943Z,186.37
2017-06-10T20:22:25.045Z,230.30
2017-06-10T20:24:53.124Z,260.33
2017-06-10T20:27:21.203Z,225.80
2017-06-10T20:29:49.393Z,187.47
2017-06-10T20:32:17.463Z,149.30
2017-06-10T20:34:45.556Z,150.83
2017-06-10T20:37:13.651Z,150.00
2017-06-10T20:39:41.731Z,138.53
2017-06-10T20:42:09.819Z,136.03
2017-06-10T20:44:37.900Z,138.47
2017-06-10T20:47:05.991Z,119.27
2017-06-10T20:49:34.072Z,123.37
2017-06-10T20:52:02.172Z,126.23
2017-06-10T20:54:30.279Z,118.13
2017-06-10T20:56:58.457Z,117.37
2017-06-10T20:59:26.531Z,118.87
2017-06-10T21:01:54.612Z,108.57
2017-06-10T21:04:23.472Z,103.80
2017-06-10T21:06:51.659Z,99.30
2017-06-10T21:09:19.735Z,90.10
2017-06-10T21:11:47.810Z,78.43
2017-06-10T21:14:16.060Z,75.07
2017-06-10T21:16:44.173Z,67.90
2017-06-10T21:19:12.256Z,68.07
2017-06-10T21:21:40.780Z,66.60
2017-06-10T21:24:08.911Z,63.80
2017-06-10T21:26:36.979Z,65.47
2017-06-10T21:29:05.819Z,62.87
2017-06-10T21:31:33.904Z,65.43
2017-06-10T21:34:02.128Z,67.57
2017-06-10T21:36:30.972Z,63.17
2017-06-10T21:38:59.250Z,68.87
2017-06-10T21:41:27.347Z,57.30
2017-06-10T21:43:55.422Z,60.47
2017-06-10T21:46:24.275Z,61.17
2017-06-10T21:48:52.359Z,58.60
2017-06-10T21:51:20.461Z,59.03
2017-06-10T21:53:49.367Z,59.40
2017-06-10T21:56:18.221Z,56.67
2017-06-10T21:58:46.325Z,54.60
2017-06-10T22:01:15.184Z,53.00
2017-06-10T22:03:43.265Z,53.33
2017-06-10T22:06:11.338Z,56.97
2017-06-10T22:08:39.476Z,57.47
2017-06-10T22:11:07.569Z,64.80
2017-06-10T22:13:35.661Z,56.27
2017-06-10T22:16:03.752Z,58.20
2017-06-10T22:18:31.854Z,57.70
2017-06-10T22:20:59.933Z,55.23
2017-06-10T22:23:28.006Z,60.17
2017-06-10T22:25:56.095Z,56.13
2017-06-10T22:28:24.185Z,53.60
2017-06-10T22:30:52.278Z,59.73
2017-06-10T22:33:20.355Z,58.23
2017-06-10T22:35:49.219Z,65.07
2017-06-10T22:38:17.293Z,67.07
2017-06-10T22:40:45.397Z,67.70
2017-06-10T22:43:14.240Z,69.13
2017-06-10T22:45:42.368Z,71.43
2017-06-10T22:48:10.446Z,74.97
2017-06-10T22:50:38.519Z,67.30
2017-06-10T22:53:06.599Z,69.23
2017-06-10T22:55:34.667Z,78.67
2017-06-10T22:58:02.759Z,67.50
2017-06-10T23:00:30.835Z,72.00
2017-06-10T23:02:58.935Z,72.20
2017-06-10T23:05:27.035Z,76.43
2017-06-10T23:07:55.875Z,81.83
2017-06-10T23:10:23.959Z,86.03
2017-06-10T23:12:52.213Z,86.07
2017-06-10T23:15:20.292Z,92.07
2017-06-10T23:17:48.364Z,99.40
2017-06-10T23:20:16.451Z,94.50
2017-06-10T23:22:44.543Z,100.77
2017-06-10T23:25:12.634Z,111.87
2017-06-10T23:27:40.717Z,106.23
2017-06-10T23:30:09.571Z,105.57
2017-06-10T23:32:37.687Z,105.00
2017-06-10T23:35:05.759Z,116.77
2017-06-10T23:37:34.617Z,120.33
2017-06-10T23:40:02.784Z,118.13
2017-06-10T23:42:30.871Z,119.97
2017-06-10T23:44:59.032Z,127.57
2017-06-10T23:47:27.137Z,129.50
2017-06-10T23:49:55.995Z,140.67
2017-06-10T23:52:24.303Z,151.03
2017-06-10T23:54:53.153Z,145.30
2017-06-10T23:57:21.239Z,146.17
2017-06-10T23:59:49.323Z,157.90
